createdAt,value
2022-10-15T00:01:39.052Z,8.82
2022-10-15T00:04:05.999Z,9.18
2022-10-15T00:06:32.905Z,9.00
2022-10-15T00:08:59.792Z,9.02
2022-10-15T00:11:28.646Z,9.48
2022-10-15T00:13:59.580Z,8.43
2022-10-15T00:16:28.852Z,8.75
2022-10-15T00:18:56.981Z,8.20
2022-10-15T00:21:23.955Z,8.43
2022-10-15T00:23:50.693Z,8.07
2022-10-15T00:26:19.962Z,7.75
2022-10-15T00:28:47.288Z,8.27
2022-10-15T00:31:17.036Z,11.95
2022-10-15T00:33:45.338Z,8.45
2022-10-15T00:36:18.077Z,8.88
2022-10-15T00:38:45.375Z,9.98
2022-10-15T00:41:20.810Z,10.20
2022-10-15T00:43:50.276Z,12.13
2022-10-15T00:46:35.410Z,11.90
2022-10-15T00:49:17.785Z,11.48
2022-10-15T00:52:03.897Z,10.63
2022-10-15T00:54:34.645Z,11.38
2022-10-15T00:57:01.725Z,11.70
2022-10-15T00:59:31.338Z,11.30
2022-10-15T01:02:00.666Z,11.25
2022-10-15T01:04:28.491Z,10.63
2022-10-15T01:06:55.627Z,11.45
2022-10-15T01:09:22.966Z,11.48
2022-10-15T01:11:52.202Z,11.63
2022-10-15T01:14:47.718Z,11.25
2022-10-15T01:17:26.933Z,10.75
2022-10-15T01:20:16.511Z,10.50
2022-10-15T01:23:22.384Z,11.07
2022-10-15T01:26:42.935Z,11.98
2022-10-15T01:29:54.483Z,10.90
2022-10-15T01:32:38.775Z,11.55
2022-10-15T01:35:36.055Z,11.05
2022-10-15T01:38:26.779Z,11.05
2022-10-15T01:41:10.751Z,10.52
2022-10-15T01:43:48.649Z,10.63
2022-10-15T01:46:23.080Z,10.27
2022-10-15T01:48:54.907Z,10.65
2022-10-15T01:51:24.510Z,9.73
2022-10-15T01:53:52.471Z,11.48
2022-10-15T01:56:23.256Z,10.32
2022-10-15T01:58:53.070Z,9.93
2022-10-15T02:01:19.732Z,10.32
2022-10-15T02:03:55.502Z,11.50
2022-10-15T02:06:37.765Z,9.40
2022-10-15T02:09:25.619Z,9.77
2022-10-15T02:12:07.225Z,10.18
2022-10-15T02:15:19.110Z,9.38
2022-10-15T02:18:11.310Z,9.48
2022-10-15T02:20:58.510Z,9.32
2022-10-15T02:23:34.215Z,9.15
2022-10-15T02:26:04.515Z,9.80
2022-10-15T02:28:33.964Z,10.32
2022-10-15T02:31:03.154Z,9.77
2022-10-15T02:33:31.246Z,8.85
2022-10-15T02:35:59.192Z,8.88
2022-10-15T02:38:31.310Z,9.23
2022-10-15T02:40:58.264Z,9.38
2022-10-15T02:43:24.845Z,10.68
2022-10-15T02:45:51.506Z,9.50
2022-10-15T02:48:18.311Z,9.27
2022-10-15T02:50:45.201Z,9.18
2022-10-15T02:53:11.736Z,9.93
2022-10-15T02:55:38.395Z,9.38
2022-10-15T02:58:04.978Z,9.48
2022-10-15T03:00:31.761Z,10.07
2022-10-15T03:02:58.656Z,9.93
2022-10-15T03:05:25.614Z,10.05
2022-10-15T03:07:52.715Z,9.32
2022-10-15T03:10:19.430Z,9.73
2022-10-15T03:12:46.017Z,9.20
2022-10-15T03:15:12.817Z,9.45
2022-10-15T03:17:39.480Z,9.48
2022-10-15T03:20:06.546Z,9.88
2022-10-15T03:22:33.122Z,10.40
2022-10-15T03:24:59.762Z,9.32
2022-10-15T03:27:26.687Z,9.73
2022-10-15T03:29:53.407Z,9.93
2022-10-15T03:32:20.010Z,10.65
2022-10-15T03:34:46.583Z,10.13
2022-10-15T03:37:13.176Z,11.10
2022-10-15T03:39:39.999Z,10.60
2022-10-15T03:42:06.581Z,10.27
2022-10-15T03:44:34.267Z,10.10
2022-10-15T03:47:00.865Z,9.85
2022-10-15T03:49:27.652Z,9.90
2022-10-15T03:51:54.461Z,9.50
2022-10-15T03:54:21.074Z,9.25
2022-10-15T03:56:47.786Z,9.82
2022-10-15T03:59:14.511Z,9.27
2022-10-15T04:01:41.150Z,10.07
2022-10-15T04:04:07.863Z,9.98
2022-10-15T04:06:34.565Z,9.50
2022-10-15T04:09:01.234Z,10.35
2022-10-15T04:11:27.836Z,10.60
2022-10-15T04:13:54.397Z,10.73
2022-10-15T04:16:21.194Z,10.18
2022-10-15T04:18:47.741Z,10.35
2022-10-15T04:21:14.302Z,9.07
2022-10-15T04:23:41.214Z,10.30
2022-10-15T04:26:07.861Z,9.65
2022-10-15T04:28:34.657Z,10.02
2022-10-15T04:31:01.994Z,9.98
2022-10-15T04:33:28.748Z,9.40
2022-10-15T04:36:03.892Z,10.25
2022-10-15T04:38:30.778Z,9.88
2022-10-15T04:41:11.783Z,9.65
2022-10-15T04:43:39.451Z,10.30
2022-10-15T04:46:07.245Z,10.38
2022-10-15T04:48:37.720Z,10.68
2022-10-15T04:51:09.638Z,11.75
2022-10-15T04:53:36.452Z,10.23
2022-10-15T04:56:10.598Z,9.90
2022-10-15T04:58:37.403Z,10.20
2022-10-15T05:01:06.244Z,10.38
2022-10-15T05:03:36.531Z,10.25
2022-10-15T05:08:34.747Z,11.57
2022-10-15T05:11:10.379Z,10.35
2022-10-15T05:13:37.443Z,11.05
2022-10-15T05:16:10.452Z,17.20
2022-10-15T05:18:37.286Z,18.10
2022-10-15T05:21:04.508Z,13.20
2022-10-15T05:23:31.267Z,11.48
2022-10-15T05:26:02.125Z,11.50
2022-10-15T05:28:29.363Z,12.45
2022-10-15T05:30:56.384Z,10.93
2022-10-15T05:33:23.050Z,11.25
2022-10-15T05:35:49.626Z,11.75
2022-10-15T05:38:16.397Z,10.50
2022-10-15T05:40:48.540Z,10.30
2022-10-15T05:43:15.274Z,11.25
2022-10-15T05:45:42.311Z,11.30
2022-10-15T05:48:08.897Z,10.80
2022-10-15T05:50:35.634Z,10.68
2022-10-15T05:53:02.191Z,10.65
2022-10-15T05:55:28.756Z,10.98
2022-10-15T05:57:55.769Z,11.02
2022-10-15T06:00:22.347Z,10.02
2022-10-15T06:02:49.252Z,11.40
2022-10-15T06:05:16.272Z,10.30
2022-10-15T06:07:42.787Z,11.23
2022-10-15T06:10:09.440Z,11.02
2022-10-15T06:12:36.034Z,9.60
2022-10-15T06:15:02.656Z,10.13
2022-10-15T06:17:29.268Z,9.60
2022-10-15T06:19:55.855Z,9.35
2022-10-15T06:22:22.416Z,10.45
2022-10-15T06:24:49.044Z,10.38
2022-10-15T06:27:15.839Z,10.95
2022-10-15T06:29:42.644Z,9.43
2022-10-15T06:32:11.054Z,10.65
2022-10-15T06:34:38.195Z,9.15
2022-10-15T06:37:04.952Z,11.43
2022-10-15T06:39:31.618Z,10.02
2022-10-15T06:41:58.414Z,10.75
2022-10-15T06:44:25.041Z,10.38
2022-10-15T06:46:51.686Z,10.15
2022-10-15T06:49:18.280Z,11.18
2022-10-15T06:51:45.089Z,13.43
2022-10-15T06:54:11.779Z,9.93
2022-10-15T06:56:38.315Z,10.15
2022-10-15T06:59:05.679Z,11.23
2022-10-15T07:01:32.253Z,9.23
2022-10-15T07:03:59.018Z,9.38
2022-10-15T07:06:25.857Z,9.65
2022-10-15T07:08:53.841Z,8.98
2022-10-15T07:11:20.466Z,8.88
2022-10-15T07:13:47.006Z,8.07
2022-10-15T07:16:13.855Z,8.18
2022-10-15T07:18:40.627Z,8.13
2022-10-15T07:21:12.223Z,8.65
2022-10-15T07:23:38.836Z,8.43
2022-10-15T07:26:05.555Z,8.43
2022-10-15T07:28:32.278Z,8.43
2022-10-15T07:31:03.989Z,8.60
2022-10-15T07:33:31.325Z,9.60
2022-10-15T07:35:57.903Z,8.40
2022-10-15T07:38:24.625Z,8.90
2022-10-15T07:40:51.226Z,8.80
2022-10-15T07:43:17.805Z,9.50
2022-10-15T07:45:49.255Z,8.82
2022-10-15T07:48:16.816Z,10.15
2022-10-15T07:50:43.423Z,9.20
2022-10-15T07:53:10.350Z,9.48
2022-10-15T07:55:36.971Z,9.50
2022-10-15T07:58:05.805Z,9.98
2022-10-15T08:03:05.018Z,9.63
2022-10-15T08:05:31.990Z,10.30
2022-10-15T08:07:58.667Z,10.70
2022-10-15T08:10:25.295Z,10.68
2022-10-15T08:12:52.134Z,15.23
2022-10-15T08:15:19.232Z,11.70
2022-10-15T08:17:46.073Z,11.32
2022-10-15T08:20:13.331Z,10.80
2022-10-15T08:22:39.977Z,9.52
2022-10-15T08:25:06.986Z,9.13
2022-10-15T08:27:33.612Z,8.50
2022-10-15T08:30:00.254Z,7.50
2022-10-15T08:32:27.106Z,8.23
2022-10-15T08:34:53.713Z,8.38
2022-10-15T08:37:20.469Z,9.00
2022-10-15T08:39:47.099Z,8.25
2022-10-15T08:42:33.645Z,9.05
2022-10-15T08:45:04.482Z,9.20
2022-10-15T08:47:53.371Z,8.13
2022-10-15T08:50:38.725Z,8.15
2022-10-15T08:53:05.551Z,8.00
2022-10-15T08:55:39.263Z,7.65
2022-10-15T08:58:48.050Z,8.70
2022-10-15T09:02:09.827Z,8.05
2022-10-15T09:04:47.114Z,7.45
2022-10-15T09:07:36.590Z,6.88
2022-10-15T09:10:23.147Z,8.02
2022-10-15T09:13:09.611Z,8.75
2022-10-15T09:15:49.260Z,7.82
2022-10-15T09:18:22.244Z,8.55
2022-10-15T09:20:49.697Z,7.93
2022-10-15T09:23:21.973Z,9.20
2022-10-15T09:26:34.494Z,8.73
2022-10-15T09:29:30.310Z,8.40
2022-10-15T09:34:34.438Z,9.07
2022-10-15T09:37:09.578Z,8.95
2022-10-15T09:39:41.000Z,8.77
2022-10-15T09:42:41.439Z,8.32
2022-10-15T09:45:13.593Z,7.82
2022-10-15T09:47:42.308Z,7.45
2022-10-15T09:50:13.835Z,8.60
2022-10-15T09:53:05.167Z,7.93
2022-10-15T09:55:52.023Z,7.82
2022-10-15T09:58:38.839Z,8.00
2022-10-15T10:01:18.483Z,9.05
2022-10-15T10:03:45.159Z,8.15
2022-10-15T10:06:13.925Z,8.48
2022-10-15T10:08:53.458Z,8.10
2022-10-15T10:11:21.070Z,7.85
2022-10-15T10:13:56.596Z,7.80
2022-10-15T10:16:24.082Z,8.50
2022-10-15T10:19:06.710Z,7.22
2022-10-15T10:24:21.225Z,7.32
2022-10-15T10:26:48.466Z,6.97
2022-10-15T10:29:32.896Z,7.80
2022-10-15T10:32:00.555Z,6.15
2022-10-15T10:34:30.232Z,6.22
2022-10-15T10:36:57.368Z,5.05
2022-10-15T10:39:30.038Z,4.90
2022-10-15T10:42:02.157Z,3.72
2022-10-15T10:44:40.482Z,3.13
2022-10-15T10:47:38.187Z,1.88
2022-10-15T10:50:43.834Z,1.40
2022-10-15T10:53:32.969Z,1.92
2022-10-15T10:56:02.066Z,0.98
2022-10-15T10:58:33.273Z,1.30
2022-10-15T11:01:00.236Z,1.00
2022-10-15T11:03:39.423Z,1.20
2022-10-15T11:06:38.087Z,1.10
2022-10-15T11:09:32.141Z,1.05
2022-10-15T11:12:30.510Z,1.00
2022-10-15T11:15:29.120Z,1.00
2022-10-15T11:18:37.743Z,0.98
2022-10-15T11:21:27.852Z,0.90
2022-10-15T11:24:19.894Z,0.93
2022-10-15T11:27:14.701Z,0.68
2022-10-15T11:30:03.464Z,0.70
2022-10-15T11:33:06.809Z,0.80
2022-10-15T11:35:53.435Z,1.33
2022-10-15T11:38:45.963Z,0.70
2022-10-15T11:42:06.318Z,0.70
2022-10-15T11:44:51.412Z,0.55
2022-10-15T11:47:59.202Z,0.60
2022-10-15T11:51:02.965Z,0.50
2022-10-15T11:53:48.865Z,0.68
2022-10-15T11:56:33.735Z,0.77
2022-10-15T12:02:45.352Z,0.60
2022-10-15T12:05:21.030Z,0.98
2022-10-15T12:07:49.962Z,0.60
2022-10-15T12:10:45.929Z,0.93
2022-10-15T12:13:40.272Z,0.80
2022-10-15T12:16:33.701Z,0.60
2022-10-15T12:19:16.127Z,0.57
2022-10-15T12:22:33.631Z,1.15
2022-10-15T12:25:01.031Z,0.75
2022-10-15T12:27:37.208Z,0.70
2022-10-15T12:30:20.516Z,0.80
2022-10-15T12:32:48.669Z,0.82
2022-10-15T12:35:26.269Z,0.73
2022-10-15T12:37:52.877Z,0.90
2022-10-15T12:40:31.104Z,0.70
2022-10-15T12:43:04.092Z,0.68
2022-10-15T12:45:40.501Z,0.73
2022-10-15T12:48:20.724Z,0.73
2022-10-15T12:50:47.742Z,8.05
2022-10-15T12:56:37.594Z,1.02
2022-10-15T12:59:05.088Z,1.13
2022-10-15T13:01:52.801Z,0.95
2022-10-15T13:04:20.052Z,0.63
2022-10-15T13:06:47.592Z,0.65
2022-10-15T13:09:29.306Z,0.93
2022-10-15T13:11:58.635Z,1.07
2022-10-15T13:14:49.691Z,0.60
2022-10-15T13:17:19.660Z,0.60
2022-10-15T13:19:53.299Z,0.95
2022-10-15T13:22:24.158Z,1.30
2022-10-15T13:24:51.413Z,0.57
2022-10-15T13:27:30.542Z,0.70
2022-10-15T13:30:02.278Z,0.93
2022-10-15T13:32:32.219Z,0.63
2022-10-15T13:35:01.160Z,0.80
2022-10-15T13:37:32.515Z,0.80
2022-10-15T13:40:03.098Z,0.47
2022-10-15T13:42:33.546Z,0.88
2022-10-15T13:45:33.387Z,0.80
2022-10-15T13:48:00.309Z,0.77
2022-10-15T13:50:36.691Z,1.00
2022-10-15T13:53:20.890Z,1.08
2022-10-15T13:55:50.482Z,0.82
2022-10-15T13:58:37.787Z,0.80
2022-10-15T14:01:15.923Z,1.00
2022-10-15T14:03:56.889Z,1.05
2022-10-15T14:06:28.736Z,0.90
2022-10-15T14:09:00.671Z,0.70
2022-10-15T14:11:29.064Z,1.00
2022-10-15T14:13:58.090Z,1.67
2022-10-15T14:16:30.823Z,1.20
2022-10-15T14:19:09.830Z,1.35
2022-10-15T14:21:37.684Z,1.80
2022-10-15T14:24:17.491Z,1.50
2022-10-15T14:26:44.813Z,1.30
2022-10-15T14:29:25.973Z,3.70
2022-10-15T14:31:53.351Z,2.45
2022-10-15T14:34:40.115Z,2.03
2022-10-15T14:37:29.599Z,2.30
2022-10-15T14:40:28.686Z,2.80
2022-10-15T14:43:06.694Z,2.25
2022-10-15T14:45:56.987Z,1.92
2022-10-15T14:48:35.907Z,2.22
2022-10-15T14:51:08.911Z,2.22
2022-10-15T14:53:39.167Z,1.77
2022-10-15T14:56:19.230Z,1.85
2022-10-15T14:58:56.733Z,2.05
2022-10-15T15:01:24.094Z,1.77
2022-10-15T15:03:56.098Z,2.30
2022-10-15T15:06:23.107Z,1.90
2022-10-15T15:08:50.153Z,2.60
2022-10-15T15:11:21.401Z,2.55
2022-10-15T15:13:49.398Z,2.35
2022-10-15T15:16:17.999Z,2.20
2022-10-15T15:18:46.359Z,3.13
2022-10-15T15:21:15.479Z,2.40
2022-10-15T15:23:43.607Z,2.67
2022-10-15T15:26:10.238Z,2.80
2022-10-15T15:28:36.915Z,2.45
2022-10-15T15:31:08.174Z,3.75
2022-10-15T15:33:34.951Z,3.05
2022-10-15T15:36:12.347Z,3.83
2022-10-15T15:38:39.305Z,2.80
2022-10-15T15:41:17.805Z,2.50
2022-10-15T15:43:45.645Z,2.60
2022-10-15T15:46:12.926Z,4.85
2022-10-15T15:48:39.578Z,3.63
2022-10-15T15:51:22.405Z,3.17
2022-10-15T15:53:49.349Z,2.40
2022-10-15T15:56:16.056Z,3.00
2022-10-15T15:58:42.798Z,3.13
2022-10-15T16:01:09.469Z,2.67
2022-10-15T16:03:36.046Z,2.67
2022-10-15T16:06:04.998Z,3.33
2022-10-15T16:08:31.673Z,2.47
2022-10-15T16:11:05.173Z,2.88
2022-10-15T16:13:32.507Z,3.45
2022-10-15T16:15:59.217Z,2.78
2022-10-15T16:18:25.930Z,3.90
2022-10-15T16:20:52.793Z,3.72
2022-10-15T16:23:19.379Z,3.10
2022-10-15T16:25:45.930Z,2.80
2022-10-15T16:28:12.560Z,3.97
2022-10-15T16:30:39.100Z,3.90
2022-10-15T16:35:38.412Z,3.30
2022-10-15T16:38:05.094Z,4.22
2022-10-15T16:40:31.693Z,3.83
2022-10-15T16:42:58.455Z,3.08
2022-10-15T16:45:25.243Z,4.03
2022-10-15T16:47:51.843Z,3.80
2022-10-15T16:50:18.671Z,3.78
2022-10-15T16:52:45.251Z,4.75
2022-10-15T16:55:11.915Z,4.57
2022-10-15T16:57:38.759Z,5.05
2022-10-15T17:00:05.970Z,6.43
2022-10-15T17:02:32.606Z,6.05
2022-10-15T17:04:59.233Z,6.15
2022-10-15T17:07:26.238Z,6.35
2022-10-15T17:09:53.047Z,7.22
2022-10-15T17:12:19.645Z,5.53
2022-10-15T17:14:53.073Z,6.50
2022-10-15T17:17:19.723Z,5.43
2022-10-15T17:19:46.361Z,6.07
2022-10-15T17:22:13.090Z,7.03
2022-10-15T17:24:39.687Z,7.00
2022-10-15T17:27:06.313Z,8.02
2022-10-15T17:29:33.862Z,7.20
2022-10-15T17:32:02.399Z,6.60
2022-10-15T17:34:29.465Z,7.03
2022-10-15T17:36:56.422Z,7.15
2022-10-15T17:39:23.212Z,7.60
2022-10-15T17:41:51.701Z,6.20
2022-10-15T17:44:18.301Z,7.00
2022-10-15T17:46:45.095Z,7.15
2022-10-15T17:49:11.842Z,7.80
2022-10-15T17:51:38.534Z,7.00
2022-10-15T17:54:05.248Z,8.27
2022-10-15T17:56:34.583Z,9.13
2022-10-15T17:59:03.514Z,8.48
2022-10-15T18:01:52.889Z,9.30
2022-10-15T18:04:19.830Z,12.18
2022-10-15T18:06:46.545Z,14.98
2022-10-15T18:09:13.275Z,15.75
2022-10-15T18:11:39.950Z,16.55
2022-10-15T18:14:06.551Z,17.63
2022-10-15T18:16:33.198Z,17.38
2022-10-15T18:18:59.808Z,15.13
2022-10-15T18:21:28.259Z,18.02
2022-10-15T18:23:56.600Z,21.13
2022-10-15T18:26:23.719Z,21.58
2022-10-15T18:28:52.310Z,26.33
2022-10-15T18:31:19.871Z,19.95
2022-10-15T18:33:51.802Z,18.35
2022-10-15T18:36:21.546Z,17.25
2022-10-15T18:38:48.198Z,16.45
2022-10-15T18:41:21.625Z,15.23
2022-10-15T18:43:56.145Z,14.85
2022-10-15T18:46:23.542Z,12.02
2022-10-15T18:48:51.111Z,12.20
2022-10-15T18:51:18.255Z,10.82
2022-10-15T18:53:44.887Z,10.57
2022-10-15T18:56:15.252Z,9.23
2022-10-15T18:58:42.979Z,7.78
2022-10-15T19:01:28.943Z,8.93
2022-10-15T19:03:57.063Z,8.77
2022-10-15T19:06:27.066Z,7.00
2022-10-15T19:08:57.346Z,6.75
2022-10-15T19:11:24.448Z,5.72
2022-10-15T19:13:51.077Z,5.60
2022-10-15T19:16:17.774Z,5.53
2022-10-15T19:18:44.639Z,6.70
2022-10-15T19:21:12.189Z,5.82
2022-10-15T19:23:38.873Z,6.60
2022-10-15T19:26:10.656Z,7.97
2022-10-15T19:28:38.311Z,7.25
2022-10-15T19:31:07.897Z,7.30
2022-10-15T19:33:35.164Z,6.72
2022-10-15T19:36:02.329Z,5.38
2022-10-15T19:38:29.139Z,5.57
2022-10-15T19:40:55.954Z,6.72
2022-10-15T19:43:23.549Z,4.72
2022-10-15T19:45:50.686Z,5.00
2022-10-15T19:48:19.329Z,5.13
2022-10-15T19:50:47.406Z,5.30
2022-10-15T19:53:16.572Z,5.50
2022-10-15T19:55:53.934Z,5.95
2022-10-15T19:58:20.530Z,7.28
2022-10-15T20:00:50.981Z,6.97
2022-10-15T20:03:18.127Z,6.43
2022-10-15T20:05:46.076Z,6.47
2022-10-15T20:08:13.969Z,5.90
2022-10-15T20:10:41.713Z,6.80
2022-10-15T20:13:08.991Z,5.05
2022-10-15T20:15:35.578Z,5.82
2022-10-15T20:18:02.187Z,6.03
2022-10-15T20:20:28.974Z,5.72
2022-10-15T20:22:55.559Z,4.68
2022-10-15T20:25:22.133Z,5.18
2022-10-15T20:27:48.690Z,4.60
2022-10-15T20:30:15.545Z,5.03
2022-10-15T20:32:43.470Z,5.18
2022-10-15T20:35:10.290Z,4.70
2022-10-15T20:37:36.880Z,3.67
2022-10-15T20:40:04.311Z,3.22
2022-10-15T20:42:31.295Z,3.28
2022-10-15T20:44:58.127Z,4.32
2022-10-15T20:47:24.767Z,5.60
2022-10-15T20:49:53.360Z,8.10
2022-10-15T20:52:23.166Z,8.07
2022-10-15T20:54:51.134Z,7.85
2022-10-15T20:57:17.978Z,7.53
2022-10-15T20:59:44.558Z,6.72
2022-10-15T21:02:11.306Z,6.93
2022-10-15T21:04:37.872Z,6.85
2022-10-15T21:07:04.635Z,6.40
2022-10-15T21:09:31.227Z,5.55
2022-10-15T21:11:57.860Z,4.53
2022-10-15T21:14:24.957Z,4.53
2022-10-15T21:16:51.567Z,4.55
2022-10-15T21:19:18.338Z,4.53
2022-10-15T21:21:45.091Z,4.07
2022-10-15T21:24:12.868Z,4.18
2022-10-15T21:26:39.458Z,4.38
2022-10-15T21:29:11.181Z,3.90
2022-10-15T21:31:37.990Z,4.00
2022-10-15T21:34:04.771Z,3.53
2022-10-15T21:36:31.366Z,5.32
2022-10-15T21:39:06.790Z,4.32
2022-10-15T21:41:35.784Z,3.72
2022-10-15T21:44:03.622Z,3.78
2022-10-15T21:46:31.419Z,3.72
2022-10-15T21:48:58.554Z,3.03
2022-10-15T21:51:30.397Z,3.17
2022-10-15T21:53:58.393Z,2.97
2022-10-15T21:56:25.338Z,3.05
2022-10-15T21:58:52.261Z,2.72
2022-10-15T22:01:23.983Z,4.18
2022-10-15T22:03:52.604Z,2.88
2022-10-15T22:06:20.724Z,4.15
2022-10-15T22:08:47.830Z,4.10
2022-10-15T22:11:30.086Z,4.30
2022-10-15T22:13:59.785Z,5.15
2022-10-15T22:16:27.886Z,4.72
2022-10-15T22:18:57.643Z,4.78
2022-10-15T22:21:27.623Z,5.15
2022-10-15T22:23:59.837Z,4.53
2022-10-15T22:26:32.555Z,4.63
2022-10-15T22:29:01.976Z,5.53
2022-10-15T22:31:29.147Z,4.70
2022-10-15T22:33:57.863Z,3.60
2022-10-15T22:36:26.630Z,3.58
2022-10-15T22:41:30.124Z,3.42
2022-10-15T22:43:57.047Z,3.10
2022-10-15T22:46:23.671Z,3.13
2022-10-15T22:48:50.303Z,3.25
2022-10-15T22:51:16.977Z,3.88
2022-10-15T22:53:43.791Z,3.53
2022-10-15T22:56:15.874Z,3.53
2022-10-15T22:58:43.256Z,3.38
2022-10-15T23:01:19.238Z,4.13
2022-10-15T23:03:48.531Z,4.68
2022-10-15T23:06:16.476Z,5.13
2022-10-15T23:08:43.734Z,5.07
2022-10-15T23:11:16.885Z,5.60
2022-10-15T23:13:45.135Z,4.95
2022-10-15T23:16:20.554Z,4.78
2022-10-15T23:18:51.615Z,4.20
2022-10-15T23:21:20.995Z,4.55
2022-10-15T23:23:47.722Z,5.03
2022-10-15T23:26:16.243Z,4.95
2022-10-15T23:28:44.578Z,4.43
2022-10-15T23:31:19.263Z,4.45
2022-10-15T23:33:46.433Z,3.22
2022-10-15T23:36:13.718Z,3.47
2022-10-15T23:38:40.359Z,3.53
2022-10-15T23:41:09.653Z,3.33
2022-10-15T23:43:36.471Z,3.33
2022-10-15T23:46:03.541Z,3.08
2022-10-15T23:48:30.337Z,3.25
2022-10-15T23:51:00.883Z,3.42
2022-10-15T23:53:31.827Z,3.53
2022-10-15T23:56:01.718Z,2.78
2022-10-15T23:58:28.360Z,3.78
